Time;durP1;ratioP1;P1;durP2;ratioP2;P2;SDS_P1;SDS_P2;PMS_P1;PMS_P2;Temp;Humidity;BMP_temperature;BMP_pressure;BME280_temperature;BME280_humidity;BME280_pressure;Samples;Min_cycle;Max_cycle;Signal;HPM_P1;HPM_P2
2023/12/03 00:01:53;;;;;;;10.40;8.18;;;5.60;99.90;;;;;;5054821;28;20099;-54
2023/12/03 00:04:19;;;;;;;10.52;8.73;;;5.50;99.90;;;;;;5057908;28;20119;-56
2023/12/03 00:06:45;;;;;;;8.75;6.95;;;5.50;99.90;;;;;;5056426;28;20033;-57
2023/12/03 00:09:11;;;;;;;10.27;7.45;;;5.40;99.90;;;;;;5019590;28;20385;-55
2023/12/03 00:11:37;;;;;;;9.88;8.07;;;5.20;99.90;;;;;;5054550;28;20083;-56
2023/12/03 00:14:02;;;;;;;11.57;8.10;;;5.30;99.90;;;;;;5052085;28;20083;-57
2023/12/03 00:16:28;;;;;;;5.85;4.53;;;5.30;99.90;;;;;;5054737;28;20078;-54
2023/12/03 00:18:54;;;;;;;9.93;8.05;;;5.20;99.90;;;;;;5053744;28;20082;-57
2023/12/03 00:21:20;;;;;;;8.20;5.32;;;5.30;99.90;;;;;;5029037;28;20037;-57
2023/12/03 00:23:45;;;;;;;9.15;7.80;;;5.30;99.90;;;;;;5010728;28;20028;-57
2023/12/03 00:26:11;;;;;;;9.60;7.88;;;5.40;99.90;;;;;;5049146;28;20036;-55
2023/12/03 00:28:37;;;;;;;9.55;7.03;;;5.40;99.90;;;;;;5052601;28;20025;-57
2023/12/03 00:31:02;;;;;;;10.82;8.45;;;5.40;99.90;;;;;;5054599;28;20511;-54
2023/12/03 00:33:28;;;;;;;9.15;6.93;;;5.40;99.90;;;;;;5052651;28;20111;-54
2023/12/03 00:35:54;;;;;;;7.90;6.65;;;5.30;99.90;;;;;;5048150;28;20025;-56
2023/12/03 00:38:20;;;;;;;5.47;4.00;;;5.30;99.90;;;;;;5058475;28;20032;-56
2023/12/03 00:40:45;;;;;;;6.80;4.95;;;5.00;99.90;;;;;;5056594;28;20119;-56
2023/12/03 00:43:11;;;;;;;9.90;7.55;;;5.10;99.90;;;;;;5051845;28;20392;-54
2023/12/03 00:45:37;;;;;;;9.88;7.53;;;5.10;99.90;;;;;;5055391;28;20029;-56
2023/12/03 00:48:03;;;;;;;12.32;8.68;;;5.20;99.90;;;;;;5058466;28;20124;-53
2023/12/03 00:50:28;;;;;;;6.07;4.68;;;5.10;99.90;;;;;;5050359;28;20111;-54
2023/12/03 00:52:54;;;;;;;9.38;6.82;;;4.90;99.90;;;;;;5058196;28;20487;-56
2023/12/03 00:55:20;;;;;;;10.40;7.72;;;5.10;99.90;;;;;;5051409;28;20033;-55
2023/12/03 00:57:45;;;;;;;7.90;6.25;;;5.20;99.90;;;;;;5051424;28;20036;-55
2023/12/03 01:00:12;;;;;;;9.70;6.55;;;5.10;99.90;;;;;;5020008;28;20116;-56
2023/12/03 01:02:37;;;;;;;9.40;7.30;;;5.20;99.90;;;;;;5050997;28;20050;-57
2023/12/03 01:05:03;;;;;;;9.82;6.65;;;5.10;99.90;;;;;;5052816;28;20521;-57
2023/12/03 01:07:29;;;;;;;8.30;6.55;;;4.90;99.90;;;;;;5016157;28;20044;-57
2023/12/03 01:09:55;;;;;;;5.60;4.00;;;4.90;99.90;;;;;;5046037;28;20033;-54
2023/12/03 01:12:20;;;;;;;9.55;6.07;;;4.80;99.90;;;;;;5038649;28;20146;-53
2023/12/03 01:14:46;;;;;;;10.10;7.88;;;4.90;99.90;;;;;;5053486;28;20051;-55
2023/12/03 01:17:12;;;;;;;7.72;5.55;;;4.80;99.90;;;;;;5051187;28;20055;-56
2023/12/03 01:19:37;;;;;;;8.55;7.10;;;4.80;99.90;;;;;;5053562;28;20033;-57
2023/12/03 01:22:03;;;;;;;8.35;6.32;;;4.90;99.90;;;;;;5051296;28;20103;-56
2023/12/03 01:24:29;;;;;;;8.20;6.45;;;5.00;99.90;;;;;;5017857;28;20043;-57
2023/12/03 01:26:55;;;;;;;7.55;6.10;;;5.00;99.90;;;;;;5046732;28;20488;-55
2023/12/03 01:29:21;;;;;;;4.70;4.00;;;5.00;99.90;;;;;;5029974;28;20037;-56
2023/12/03 01:31:47;;;;;;;7.15;5.82;;;4.90;99.90;;;;;;5051021;28;20503;-57
2023/12/03 01:34:13;;;;;;;8.38;6.53;;;5.00;99.90;;;;;;5044808;28;20031;-54
2023/12/03 01:36:39;;;;;;;7.68;6.40;;;4.90;99.90;;;;;;5054609;28;20036;-57
2023/12/03 01:39:07;;;;;;;6.85;5.95;;;5.00;99.90;;;;;;5054652;28;20037;-57
2023/12/03 01:41:33;;;;;;;7.70;5.18;;;4.90;99.90;;;;;;5037847;28;20067;-54
2023/12/03 01:43:59;;;;;;;8.05;6.65;;;4.80;99.90;;;;;;5016988;28;20437;-55
2023/12/03 01:46:26;;;;;;;6.47;4.68;;;4.90;99.90;;;;;;5050429;28;20033;-54
2023/12/03 01:48:52;;;;;;;9.68;6.72;;;4.90;99.90;;;;;;5051027;28;20032;-57
2023/12/03 01:51:18;;;;;;;9.40;7.40;;;4.90;99.90;;;;;;5047865;28;20040;-54
2023/12/03 01:53:45;;;;;;;6.20;4.53;;;5.00;99.90;;;;;;5053193;28;20060;-58
2023/12/03 01:56:12;;;;;;;7.28;4.68;;;4.90;99.90;;;;;;5050636;28;20029;-56
2023/12/03 01:58:39;;;;;;;7.22;5.60;;;4.80;99.90;;;;;;5054526;28;20108;-55
2023/12/03 02:01:06;;;;;;;8.35;6.85;;;4.80;99.90;;;;;;5051512;28;20067;-57
2023/12/03 02:03:31;;;;;;;7.18;5.88;;;4.70;99.90;;;;;;5054703;28;20025;-56
2023/12/03 02:06:05;;;;;;;8.13;6.88;;;4.80;99.90;;;;;;5053364;28;20043;-53
2023/12/03 02:08:31;;;;;;;7.40;5.45;;;4.90;99.90;;;;;;5019534;28;20044;-58
2023/12/03 02:10:58;;;;;;;8.70;6.22;;;4.90;99.90;;;;;;5054151;28;20032;-56
2023/12/03 02:13:25;;;;;;;6.85;4.97;;;5.00;99.90;;;;;;5051333;28;20649;-57
2023/12/03 02:15:50;;;;;;;10.10;6.80;;;5.00;99.90;;;;;;5054393;28;20032;-55
2023/12/03 02:18:16;;;;;;;9.18;6.43;;;5.00;99.90;;;;;;5057190;28;20029;-55
2023/12/03 02:20:42;;;;;;;7.38;5.63;;;5.00;99.90;;;;;;5016742;28;20485;-54
2023/12/03 02:23:08;;;;;;;4.93;3.22;;;5.00;99.90;;;;;;5015681;28;20045;-55
2023/12/03 02:25:33;;;;;;;5.35;3.90;;;4.70;99.90;;;;;;5055269;28;20040;-54
2023/12/03 02:27:59;;;;;;;5.40;4.38;;;4.50;99.90;;;;;;5052458;28;20025;-54
2023/12/03 02:30:25;;;;;;;4.90;2.72;;;4.60;99.90;;;;;;5051633;28;20031;-57
2023/12/03 02:32:51;;;;;;;5.43;4.45;;;4.40;99.90;;;;;;5006662;28;20560;-55
2023/12/03 02:35:16;;;;;;;6.30;3.95;;;4.40;99.90;;;;;;5055321;28;20059;-57
2023/12/03 02:37:42;;;;;;;6.43;5.10;;;4.40;99.90;;;;;;5053287;28;20043;-56
2023/12/03 02:40:08;;;;;;;8.63;5.13;;;4.40;99.90;;;;;;5045888;28;20035;-55
2023/12/03 02:42:34;;;;;;;7.35;5.25;;;4.50;99.90;;;;;;4994456;28;20072;-55
2023/12/03 02:45:00;;;;;;;7.60;5.57;;;4.50;99.90;;;;;;5007770;28;20068;-57
2023/12/03 02:47:26;;;;;;;4.72;3.55;;;4.50;99.90;;;;;;5057448;28;20033;-54
2023/12/03 02:49:51;;;;;;;7.57;5.68;;;4.50;99.90;;;;;;5051845;28;20075;-55
2023/12/03 02:52:17;;;;;;;7.60;5.40;;;4.60;99.90;;;;;;5048331;28;20043;-55
2023/12/03 02:54:43;;;;;;;6.47;5.20;;;4.50;99.90;;;;;;5015896;28;20064;-57
2023/12/03 02:57:08;;;;;;;5.65;4.30;;;4.50;99.90;;;;;;5053817;28;20119;-55
2023/12/03 02:59:34;;;;;;;6.78;5.63;;;4.50;99.90;;;;;;5056428;28;20028;-55
2023/12/03 03:02:00;;;;;;;6.88;5.28;;;4.60;99.90;;;;;;5053301;28;20037;-55
2023/12/03 03:04:25;;;;;;;6.30;5.18;;;4.70;99.90;;;;;;5053470;28;20025;-56
2023/12/03 03:06:51;;;;;;;5.90;4.72;;;4.70;99.90;;;;;;5051834;28;20187;-57
2023/12/03 03:09:17;;;;;;;7.85;5.82;;;4.70;99.90;;;;;;5051435;28;20063;-57
2023/12/03 03:11:43;;;;;;;7.93;6.10;;;;;;;;;;5009869;28;20041;-56
2023/12/03 03:14:09;;;;;;;6.88;5.55;;;;;;;;;;5057135;28;20052;-57
2023/12/03 03:16:35;;;;;;;7.25;5.45;;;4.80;99.90;;;;;;5053335;28;20036;-54
2023/12/03 03:19:01;;;;;;;6.03;4.35;;;4.90;99.90;;;;;;5058798;28;20384;-57
2023/12/03 03:21:26;;;;;;;6.50;4.93;;;4.70;99.90;;;;;;5053272;28;20115;-55
2023/12/03 03:23:52;;;;;;;4.35;3.05;;;4.60;99.90;;;;;;5056146;28;20017;-56
2023/12/03 03:26:18;;;;;;;6.63;4.85;;;4.50;99.90;;;;;;5019134;28;20052;-57
2023/12/03 03:28:43;;;;;;;6.10;4.10;;;4.40;99.90;;;;;;5051142;28;20091;-56
2023/12/03 03:31:10;;;;;;;9.32;5.65;;;4.50;99.90;;;;;;5053785;28;20055;-58
2023/12/03 03:33:36;;;;;;;7.03;5.90;;;4.40;99.90;;;;;;5050775;28;20119;-55
2023/12/03 03:36:01;;;;;;;7.78;5.20;;;4.50;99.90;;;;;;5052029;28;20100;-53
2023/12/03 03:38:27;;;;;;;7.63;5.25;;;4.50;99.90;;;;;;4985710;28;20033;-58
2023/12/03 03:40:53;;;;;;;7.28;5.47;;;4.50;99.90;;;;;;5053903;28;20127;-55
2023/12/03 03:43:19;;;;;;;7.63;5.40;;;4.50;99.90;;;;;;5056981;28;20052;-55
2023/12/03 03:45:44;;;;;;;6.68;5.00;;;4.50;99.90;;;;;;5055711;28;20072;-54
2023/12/03 03:48:10;;;;;;;5.20;4.47;;;4.40;99.90;;;;;;5049252;28;20044;-55
2023/12/03 03:50:36;;;;;;;6.47;4.45;;;4.50;99.90;;;;;;5017587;28;20254;-56
2023/12/03 03:53:01;;;;;;;7.88;5.70;;;4.40;99.90;;;;;;5024640;28;20037;-58
2023/12/03 03:55:27;;;;;;;8.40;5.60;;;4.50;99.90;;;;;;5053078;28;20021;-56
2023/12/03 03:57:53;;;;;;;5.18;4.25;;;;;;;;;;5060954;28;20070;-57
2023/12/03 04:00:19;;;;;;;6.50;5.13;;;4.40;99.90;;;;;;5020076;28;20110;-54
2023/12/03 04:02:45;;;;;;;7.03;5.38;;;4.50;99.90;;;;;;5021278;28;20072;-56
2023/12/03 04:05:10;;;;;;;7.63;6.05;;;4.30;99.90;;;;;;5054400;28;20033;-56
2023/12/03 04:07:36;;;;;;;6.60;5.38;;;4.40;99.90;;;;;;5049353;28;20037;-56
2023/12/03 04:10:02;;;;;;;5.07;3.05;;;;;;;;;;5051059;28;20025;-56
2023/12/03 04:12:28;;;;;;;6.78;5.50;;;;;;;;;;5025016;28;20028;-56
2023/12/03 04:14:54;;;;;;;6.75;5.53;;;4.20;99.90;;;;;;5054374;28;20082;-56
2023/12/03 04:17:20;;;;;;;6.35;5.30;;;4.20;99.90;;;;;;5050555;28;20029;-57
2023/12/03 04:19:45;;;;;;;6.07;5.13;;;4.30;99.90;;;;;;5054973;28;20039;-57
2023/12/03 04:22:11;;;;;;;6.38;5.57;;;4.20;99.90;;;;;;5023102;28;20041;-54
2023/12/03 04:24:37;;;;;;;5.68;4.63;;;4.20;99.90;;;;;;5019815;28;20041;-54
2023/12/03 04:27:03;;;;;;;6.22;5.35;;;4.30;99.90;;;;;;5057040;28;20043;-55
2023/12/03 04:29:28;;;;;;;7.97;6.03;;;4.30;99.90;;;;;;5038759;28;20033;-54
2023/12/03 04:31:54;;;;;;;6.88;4.90;;;4.30;99.90;;;;;;5051974;28;20504;-55
2023/12/03 04:34:20;;;;;;;6.45;5.40;;;4.20;99.90;;;;;;5016555;28;20125;-56
2023/12/03 04:36:46;;;;;;;5.55;4.80;;;4.20;99.90;;;;;;5018417;28;20025;-55
2023/12/03 04:39:11;;;;;;;8.75;4.70;;;4.10;99.90;;;;;;5050787;28;20036;-57
2023/12/03 04:41:38;;;;;;;6.60;5.07;;;;;;;;;;5048045;28;20018;-55
2023/12/03 04:44:04;;;;;;;6.13;4.68;;;4.00;99.90;;;;;;5050266;28;20039;-56
2023/12/03 04:46:30;;;;;;;7.20;4.80;;;4.00;99.90;;;;;;5002530;28;20045;-57
2023/12/03 04:48:56;;;;;;;6.68;4.25;;;4.00;99.90;;;;;;5049286;28;20047;-56
2023/12/03 04:51:22;;;;;;;6.28;4.25;;;4.00;99.90;;;;;;5055463;28;20029;-54
2023/12/03 04:53:47;;;;;;;5.57;4.43;;;3.90;99.90;;;;;;5015641;28;20139;-55
2023/12/03 04:56:13;;;;;;;6.65;5.05;;;4.00;99.90;;;;;;5021597;28;20033;-53
2023/12/03 04:58:39;;;;;;;6.80;3.92;;;4.00;99.90;;;;;;4977051;28;20037;-57
2023/12/03 05:01:05;;;;;;;5.57;3.60;;;4.00;99.90;;;;;;5051044;28;20029;-57
2023/12/03 05:03:31;;;;;;;6.63;4.93;;;3.90;99.90;;;;;;5019147;28;20025;-55
2023/12/03 05:05:56;;;;;;;4.70;3.53;;;3.90;99.90;;;;;;5055115;28;20095;-54
2023/12/03 05:08:22;;;;;;;6.28;4.13;;;3.90;99.90;;;;;;5055683;28;20032;-56
2023/12/03 05:10:48;;;;;;;7.65;5.68;;;3.90;99.90;;;;;;5019747;28;20032;-56
2023/12/03 05:13:16;;;;;;;6.50;5.30;;;4.00;99.90;;;;;;5040484;28;20056;-56
2023/12/03 05:15:42;;;;;;;7.50;5.20;;;4.00;99.90;;;;;;5054959;28;20032;-53
2023/12/03 05:18:07;;;;;;;6.25;4.97;;;4.00;99.90;;;;;;5049894;28;20051;-54
2023/12/03 05:20:33;;;;;;;5.93;4.43;;;4.00;99.90;;;;;;5020239;28;20032;-57
2023/12/03 05:22:59;;;;;;;4.05;3.17;;;3.90;99.90;;;;;;5050785;28;20041;-54
2023/12/03 05:25:25;;;;;;;4.78;3.75;;;3.90;99.90;;;;;;5015910;28;20048;-54
2023/12/03 05:27:50;;;;;;;4.82;4.13;;;3.90;99.90;;;;;;5052540;28;20036;-53
2023/12/03 05:30:17;;;;;;;7.57;5.25;;;3.90;99.90;;;;;;5053674;28;20115;-56
2023/12/03 05:32:43;;;;;;;6.57;5.22;;;4.00;99.90;;;;;;5053059;28;20091;-56
2023/12/03 05:35:10;;;;;;;7.53;6.05;;;4.10;99.90;;;;;;5056781;28;20044;-57
2023/12/03 05:37:36;;;;;;;7.93;5.93;;;3.90;99.90;;;;;;5048940;28;20376;-55
2023/12/03 05:40:04;;;;;;;7.10;4.18;;;4.00;99.90;;;;;;5050551;28;20028;-57
2023/12/03 05:42:30;;;;;;;8.30;6.03;;;4.00;99.90;;;;;;5055431;28;20685;-55
2023/12/03 05:44:56;;;;;;;8.50;4.80;;;4.10;99.90;;;;;;5052341;28;20345;-54
2023/12/03 05:47:21;;;;;;;5.03;3.38;;;4.10;99.90;;;;;;5052032;28;20037;-57
2023/12/03 05:49:47;;;;;;;6.18;4.95;;;4.10;99.90;;;;;;5015343;28;20043;-56
2023/12/03 05:52:15;;;;;;;5.85;4.80;;;4.10;99.90;;;;;;5053224;28;20025;-53
2023/12/03 05:54:42;;;;;;;8.18;5.20;;;4.10;99.90;;;;;;5056980;28;20028;-54
2023/12/03 05:57:08;;;;;;;5.13;2.95;;;4.00;99.90;;;;;;5053155;28;20519;-53
2023/12/03 05:59:34;;;;;;;5.40;3.95;;;3.90;99.90;;;;;;5058612;28;20029;-57
2023/12/03 06:01:59;;;;;;;6.95;4.97;;;4.00;99.90;;;;;;5051910;28;20029;-56
2023/12/03 06:04:25;;;;;;;6.75;4.78;;;4.10;99.90;;;;;;5052161;28;20060;-55
2023/12/03 06:06:51;;;;;;;6.25;5.20;;;4.10;99.90;;;;;;5017947;28;20381;-54
2023/12/03 06:09:17;;;;;;;6.18;5.15;;;4.10;99.90;;;;;;5055055;28;20041;-57
2023/12/03 06:11:42;;;;;;;6.57;4.80;;;4.10;99.90;;;;;;5051596;28;20032;-57
2023/12/03 06:14:08;;;;;;;7.10;5.45;;;4.10;99.90;;;;;;5050097;28;20044;-57
2023/12/03 06:16:34;;;;;;;6.47;5.38;;;4.20;99.90;;;;;;5045675;28;20111;-56
2023/12/03 06:19:00;;;;;;;6.85;4.25;;;4.20;99.90;;;;;;5055019;28;20091;-56
2023/12/03 06:21:25;;;;;;;2.97;2.63;;;4.20;99.90;;;;;;5049065;28;20030;-53
2023/12/03 06:23:52;;;;;;;7.32;5.22;;;4.00;99.90;;;;;;5051345;28;20029;-57
2023/12/03 06:26:17;;;;;;;6.25;3.95;;;4.00;99.90;;;;;;5021690;28;20064;-55
2023/12/03 06:28:43;;;;;;;8.15;5.57;;;4.10;99.90;;;;;;5058278;28;20029;-57
2023/12/03 06:31:09;;;;;;;4.88;3.00;;;4.10;99.90;;;;;;5023578;28;20056;-57
2023/12/03 06:33:35;;;;;;;6.88;5.20;;;4.10;99.90;;;;;;5020696;28;20033;-57
2023/12/03 06:36:00;;;;;;;5.45;4.03;;;4.10;99.90;;;;;;5056858;28;20635;-55
2023/12/03 06:38:26;;;;;;;6.35;4.40;;;4.10;99.90;;;;;;5056600;28;20116;-57
2023/12/03 06:40:52;;;;;;;6.85;4.78;;;4.10;99.90;;;;;;5053573;28;20358;-55
2023/12/03 06:43:18;;;;;;;8.63;5.40;;;4.00;99.90;;;;;;5057326;28;20388;-55
2023/12/03 06:45:44;;;;;;;3.78;3.00;;;4.00;99.90;;;;;;5055459;28;20025;-56
2023/12/03 06:48:09;;;;;;;6.30;5.10;;;4.00;99.90;;;;;;5050124;28;20072;-54
2023/12/03 06:50:35;;;;;;;7.97;6.25;;;4.00;99.90;;;;;;5054364;28;20021;-56
2023/12/03 06:53:01;;;;;;;6.95;4.25;;;4.10;99.90;;;;;;5053409;28;20381;-56
2023/12/03 06:55:27;;;;;;;4.18;2.58;;;4.00;99.90;;;;;;5054849;28;20032;-57
2023/12/03 06:57:53;;;;;;;6.95;5.13;;;4.00;99.90;;;;;;5056140;28;20033;-57
2023/12/03 07:00:20;;;;;;;7.07;3.83;;;4.10;99.90;;;;;;5053632;28;20025;-57
2023/12/03 07:02:46;;;;;;;7.47;4.85;;;4.20;99.90;;;;;;5052669;28;20044;-55
2023/12/03 07:05:11;;;;;;;7.63;4.38;;;4.20;99.90;;;;;;5054603;28;20456;-57
2023/12/03 07:07:37;;;;;;;6.55;4.70;;;4.20;99.90;;;;;;5058794;28;20072;-58
2023/12/03 07:10:03;;;;;;;6.57;3.33;;;4.40;99.90;;;;;;5056186;28;20029;-57
2023/12/03 07:12:30;;;;;;;5.75;4.60;;;4.30;99.90;;;;;;5057026;28;20431;-55
2023/12/03 07:14:56;;;;;;;8.48;6.25;;;4.40;99.90;;;;;;5051896;28;20037;-54
2023/12/03 07:17:22;;;;;;;7.70;5.03;;;4.40;99.90;;;;;;5054881;28;20526;-56
2023/12/03 07:19:48;;;;;;;6.90;4.60;;;4.40;99.90;;;;;;5022861;28;20036;-55
2023/12/03 07:22:13;;;;;;;6.47;4.25;;;4.40;99.90;;;;;;5017567;28;20025;-57
2023/12/03 07:24:41;;;;;;;6.43;4.68;;;4.40;99.90;;;;;;5053971;28;20590;-54
2023/12/03 07:27:10;;;;;;;3.50;2.67;;;4.50;99.90;;;;;;5056659;28;20489;-58
2023/12/03 07:29:36;;;;;;;8.45;4.53;;;4.30;99.90;;;;;;5023617;28;20094;-57
2023/12/03 07:32:02;;;;;;;9.55;4.30;;;4.40;99.90;;;;;;5050232;28;20474;-57
2023/12/03 07:34:28;;;;;;;5.15;4.00;;;4.40;99.90;;;;;;5050779;28;20029;-55
2023/12/03 07:36:53;;;;;;;7.90;5.75;;;4.50;99.90;;;;;;5056765;28;20033;-56
2023/12/03 07:39:23;;;;;;;5.07;4.22;;;4.20;99.90;;;;;;5055018;28;20031;-54
2023/12/03 07:41:53;;;;;;;14.73;5.32;;;4.40;99.90;;;;;;5055585;28;20086;-57
2023/12/03 07:44:20;;;;;;;5.88;3.15;;;4.60;99.90;;;;;;5053457;28;20025;-57
2023/12/03 07:46:45;;;;;;;2.60;1.90;;;4.20;99.90;;;;;;5052235;28;20036;-56
2023/12/03 07:49:11;;;;;;;4.35;2.53;;;4.10;99.90;;;;;;5017736;28;20041;-56
2023/12/03 07:51:37;;;;;;;9.10;4.82;;;4.00;99.90;;;;;;5012090;28;20065;-56
2023/12/03 07:54:03;;;;;;;5.18;2.80;;;4.00;99.90;;;;;;4995998;28;20088;-55
2023/12/03 07:56:39;;;;;;;3.40;2.33;;;4.00;99.90;;;;;;5015264;28;20077;-54
2023/12/03 07:59:05;;;;;;;3.67;2.85;;;4.00;99.90;;;;;;4995006;28;20042;-57
2023/12/03 08:01:31;;;;;;;4.80;3.65;;;4.10;99.90;;;;;;4960035;28;20050;-54
2023/12/03 08:03:57;;;;;;;5.22;3.17;;;4.20;99.90;;;;;;4998370;28;20445;-54
2023/12/03 08:06:23;;;;;;;7.13;2.83;;;4.30;99.90;;;;;;4951951;28;21594;-54
2023/12/03 08:08:51;;;;;;;6.80;4.60;;;4.60;99.90;;;;;;4974499;28;20117;-56
2023/12/03 08:11:16;;;;;;;6.75;4.53;;;4.60;99.90;;;;;;4998757;28;20030;-55
2023/12/03 08:13:42;;;;;;;7.80;4.75;;;4.60;99.90;;;;;;4996004;28;20078;-54
2023/12/03 08:16:09;;;;;;;2.47;2.08;;;;;;;;;;4993552;28;20057;-57
2023/12/03 08:18:35;;;;;;;5.38;3.97;;;;;;;;;;5000681;28;20045;-57
2023/12/03 08:21:01;;;;;;;6.60;4.78;;;;;;;;;;4999034;28;20042;-55
2023/12/03 08:23:26;;;;;;;5.97;4.57;;;5.00;99.90;;;;;;4993805;28;20074;-57
2023/12/03 08:25:53;;;;;;;10.63;6.25;;;4.90;99.90;;;;;;5004288;28;20068;-56
2023/12/03 08:28:19;;;;;;;26.05;16.80;;;;;;;;;;5030514;28;21284;-56
2023/12/03 08:30:45;;;;;;;73.85;60.72;;;;;;;;;;5048876;28;20090;-54
2023/12/03 08:33:11;;;;;;;104.40;59.88;;;;;;;;;;5053369;28;20102;-53
2023/12/03 08:35:37;;;;;;;108.00;72.00;;;5.10;99.90;;;;;;5054406;28;20496;-54
2023/12/03 08:38:03;;;;;;;27.20;19.88;;;5.00;99.90;;;;;;5054250;28;20099;-54
2023/12/03 08:40:29;;;;;;;6.10;4.22;;;5.10;99.90;;;;;;5047250;28;20060;-55
2023/12/03 08:42:54;;;;;;;44.78;35.55;;;5.10;99.90;;;;;;5049429;28;20067;-57
2023/12/03 08:45:20;;;;;;;9.48;6.93;;;5.10;99.90;;;;;;5035122;28;20385;-56
2023/12/03 08:47:46;;;;;;;27.58;17.02;;;4.70;99.90;;;;;;5056579;28;20126;-55
2023/12/03 08:50:12;;;;;;;30.20;19.90;;;4.50;99.90;;;;;;5050236;28;20021;-56
2023/12/03 08:52:37;;;;;;;24.08;14.77;;;4.40;99.90;;;;;;5048883;28;20036;-56
2023/12/03 08:55:04;;;;;;;96.70;51.08;;;4.40;99.90;;;;;;5050710;28;20108;-56
2023/12/03 08:57:30;;;;;;;17.92;10.30;;;4.50;99.90;;;;;;4995124;28;20398;-56
2023/12/03 08:59:55;;;;;;;25.08;11.13;;;4.60;99.90;;;;;;5051878;28;20032;-56
2023/12/03 09:02:21;;;;;;;12.73;5.68;;;4.70;99.90;;;;;;5051382;28;20032;-55
2023/12/03 09:04:47;;;;;;;43.33;13.40;;;;;;;;;;5055891;28;20063;-56
2023/12/03 09:07:13;;;;;;;117.05;38.05;;;4.30;99.90;;;;;;5053119;28;20139;-57
2023/12/03 09:09:42;;;;;;;21.80;7.50;;;4.20;98.90;;;;;;5017041;28;20555;-56
2023/12/03 09:12:09;;;;;;;54.10;18.17;;;4.40;99.90;;;;;;5055958;28;20033;-55
2023/12/03 09:14:35;;;;;;;72.70;20.58;;;4.50;99.90;;;;;;5047958;28;20025;-53
2023/12/03 09:17:01;;;;;;;10.75;4.97;;;4.60;99.90;;;;;;5045750;28;20112;-54
2023/12/03 09:19:27;;;;;;;64.65;26.50;;;4.40;98.70;;;;;;5056103;28;20425;-55
2023/12/03 09:21:52;;;;;;;11.43;6.65;;;4.50;99.60;;;;;;5057267;28;20450;-58
2023/12/03 09:24:18;;;;;;;287.08;90.47;;;;;;;;;;5056125;28;20033;-55
2023/12/03 09:26:45;;;;;;;15.98;10.23;;;4.70;99.90;;;;;;5050538;28;20140;-57
2023/12/03 09:29:12;;;;;;;198.52;68.53;;;;;;;;;;5051635;28;20029;-55
2023/12/03 09:31:39;;;;;;;10.50;5.97;;;;;;;;;;5053057;28;20099;-56
2023/12/03 09:34:06;;;;;;;44.15;19.38;;;;;;;;;;5051875;28;20394;-56
2023/12/03 09:36:32;;;;;;;9.15;5.00;;;;;;;;;;5053954;28;20473;-57
2023/12/03 09:38:58;;;;;;;6.43;4.47;;;;;;;;;;5051056;28;20029;-57
2023/12/03 09:41:24;;;;;;;18.30;10.57;;;;;;;;;;5046846;28;20055;-57
2023/12/03 09:43:59;;;;;;;21.30;12.65;;;5.10;99.90;;;;;;5050470;28;20025;-55
2023/12/03 09:46:28;;;;;;;24.85;14.98;;;5.20;99.90;;;;;;5054828;28;20032;-56
2023/12/03 09:48:55;;;;;;;40.13;23.77;;;;;;;;;;5050654;28;20116;-56
2023/12/03 09:51:21;;;;;;;8.82;5.88;;;5.50;99.30;;;;;;5052028;28;20029;-61
2023/12/03 09:53:48;;;;;;;9.80;6.78;;;5.60;98.90;;;;;;5056874;28;20031;-53
2023/12/03 09:56:16;;;;;;;9.82;7.03;;;5.60;99.20;;;;;;5016471;28;20443;-54
2023/12/03 09:58:45;;;;;;;8.95;4.72;;;5.60;98.90;;;;;;5050423;28;20477;-58
2023/12/03 10:01:12;;;;;;;38.78;22.20;;;5.40;98.30;;;;;;5055862;28;20409;-56
2023/12/03 10:03:38;;;;;;;13.82;9.63;;;5.60;99.00;;;;;;5055913;28;20060;-57
2023/12/03 10:06:04;;;;;;;8.02;6.20;;;5.60;98.50;;;;;;5050458;28;20045;-58
2023/12/03 10:08:34;;;;;;;20.02;11.60;;;5.60;98.90;;;;;;4999690;28;20489;-57
2023/12/03 10:11:05;;;;;;;11.13;6.38;;;5.50;98.40;;;;;;4972983;28;20051;-56
2023/12/03 10:13:31;;;;;;;7.72;4.43;;;5.10;97.90;;;;;;4973011;28;20082;-58
2023/12/03 10:15:57;;;;;;;14.07;10.80;;;4.80;96.80;;;;;;4972540;28;20084;-59
2023/12/03 10:18:43;;;;;;;16.77;9.10;;;5.10;99.90;;;;;;4972497;28;20439;-59
2023/12/03 10:21:09;;;;;;;9.35;6.50;;;;;;;;;;4936950;29;20040;-59
2023/12/03 10:23:39;;;;;;;8.95;5.10;;;5.00;99.90;;;;;;4934460;29;20035;-57
2023/12/03 10:26:12;;;;;;;5.85;4.03;;;5.10;99.90;;;;;;4935171;29;20079;-57
2023/12/03 10:28:40;;;;;;;18.77;13.40;;;5.00;96.40;;;;;;4896498;29;20045;-57
2023/12/03 10:31:12;;;;;;;8.10;6.53;;;5.40;96.60;;;;;;4897288;29;20581;-58
2023/12/03 10:33:38;;;;;;;18.35;11.73;;;5.40;96.80;;;;;;4896007;29;20425;-59
2023/12/03 10:36:04;;;;;;;6.38;4.63;;;5.60;96.30;;;;;;4863642;29;20041;-56
2023/12/03 10:38:40;;;;;;;10.20;6.85;;;;;;;;;;4898625;29;20374;-58
2023/12/03 10:41:09;;;;;;;6.78;5.60;;;5.90;96.60;;;;;;4939097;28;20036;-57
2023/12/03 10:43:37;;;;;;;6.25;4.82;;;6.00;96.10;;;;;;4925112;28;20561;-58
2023/12/03 10:46:23;;;;;;;8.68;5.30;;;;;;;;;;4970670;28;20054;-57
2023/12/03 10:48:52;;;;;;;7.88;6.07;;;7.40;99.90;;;;;;4933555;29;20138;-60
2023/12/03 10:51:19;;;;;;;8.20;5.90;;;6.70;96.10;;;;;;4933793;29;20080;-57
2023/12/03 10:54:04;;;;;;;6.15;5.32;;;6.90;96.10;;;;;;4933835;29;20040;-58
2023/12/03 10:56:31;;;;;;;7.63;5.13;;;;;;;;;;4928670;29;20044;-59
2023/12/03 10:59:09;;;;;;;7.65;2.95;;;6.70;95.70;;;;;;4934396;29;20372;-58
2023/12/03 11:01:42;;;;;;;5.35;4.22;;;6.10;96.20;;;;;;4934544;29;20047;-58
2023/12/03 11:04:16;;;;;;;39.40;17.17;;;5.70;97.00;;;;;;4946320;29;20055;-56
2023/12/03 11:06:46;;;;;;;62.33;23.10;;;5.30;97.70;;;;;;4952258;28;20058;-57
2023/12/03 11:09:15;;;;;;;33.13;10.98;;;5.20;98.20;;;;;;4951985;28;20044;-58
2023/12/03 11:11:41;;;;;;;125.53;39.42;;;5.20;98.10;;;;;;4937873;29;20050;-60
2023/12/03 11:14:07;;;;;;;114.63;38.88;;;5.30;98.00;;;;;;4952145;29;20080;-58
2023/12/03 11:17:30;;;;;;;60.50;22.33;;;5.30;97.80;;;;;;4933962;29;20521;-57
2023/12/03 11:19:59;;;;;;;;;;;5.50;97.20;;;;;;4942328;28;20042;-59
2023/12/03 11:23:13;;;;;;;45.25;17.67;;;5.60;96.40;;;;;;4972727;28;20000;-59
2023/12/03 11:26:14;;;;;;;46.85;14.77;;;5.60;95.90;;;;;;4972766;28;20716;-56
2023/12/03 11:28:58;;;;;;;27.73;12.32;;;5.60;96.60;;;;;;4934927;29;20126;-56
2023/12/03 11:31:24;;;;;;;22.27;10.23;;;5.60;96.80;;;;;;4944895;29;20135;-58
2023/12/03 11:34:00;;;;;;;151.27;46.55;;;;;;;;;;4935620;29;20126;-56
2023/12/03 11:36:47;;;;;;;38.60;15.55;;;6.30;99.90;;;;;;4934111;29;20627;-59
2023/12/03 11:39:14;;;;;;;111.85;38.10;;;6.20;96.30;;;;;;4928582;29;20457;-60
2023/12/03 11:41:42;;;;;;;33.85;14.55;;;6.00;96.30;;;;;;4933136;29;20024;-59
2023/12/03 11:44:25;;;;;;;7.88;5.72;;;6.30;96.40;;;;;;4944631;28;20166;-60
2023/12/03 11:47:02;;;;;;;47.33;15.32;;;6.40;96.00;;;;;;4950319;28;20051;-58
2023/12/03 11:49:35;;;;;;;138.20;48.78;;;6.40;94.90;;;;;;4955148;28;20094;-57
2023/12/03 11:52:02;;;;;;;14.52;7.78;;;6.50;95.40;;;;;;4951718;28;20110;-60
2023/12/03 11:54:31;;;;;;;59.97;26.88;;;6.40;95.50;;;;;;4971672;28;20099;-58
2023/12/03 11:56:57;;;;;;;37.28;16.63;;;6.50;96.10;;;;;;5005911;28;20121;-58
2023/12/03 11:59:23;;;;;;;57.65;25.00;;;6.30;95.90;;;;;;5024021;28;20052;-57
2023/12/03 12:01:48;;;;;;;7.35;5.82;;;6.30;95.80;;;;;;5050365;28;20025;-59
2023/12/03 12:04:24;;;;;;;23.48;11.68;;;6.50;95.70;;;;;;5048729;28;20033;-61
2023/12/03 12:06:51;;;;;;;9.52;5.93;;;6.20;95.10;;;;;;5033184;28;20045;-58
2023/12/03 12:09:36;;;;;;;6.38;5.07;;;6.10;94.90;;;;;;5030332;28;20048;-58
2023/12/03 12:12:03;;;;;;;20.30;12.20;;;6.70;95.20;;;;;;5034574;28;20025;-59
2023/12/03 12:14:29;;;;;;;15.60;9.57;;;6.80;94.70;;;;;;5009056;28;20513;-60
2023/12/03 12:16:54;;;;;;;9.75;6.50;;;6.50;94.80;;;;;;5037992;28;20057;-57
2023/12/03 12:19:20;;;;;;;50.10;24.05;;;6.80;94.60;;;;;;5029902;28;20489;-58
2023/12/03 12:21:51;;;;;;;7.53;5.40;;;6.40;93.70;;;;;;4984399;28;20183;-60
2023/12/03 12:24:17;;;;;;;10.65;5.55;;;6.10;94.50;;;;;;5030002;28;20519;-58
2023/12/03 12:27:03;;;;;;;10.80;7.13;;;;;;;;;;4987314;28;20048;-59
2023/12/03 12:29:29;;;;;;;14.45;10.20;;;6.40;99.00;;;;;;4983707;28;20039;-60
2023/12/03 12:31:55;;;;;;;5.85;4.78;;;6.20;94.10;;;;;;4978589;28;20047;-57
2023/12/03 12:34:23;;;;;;;22.90;13.35;;;6.40;94.00;;;;;;4986627;28;20057;-58
2023/12/03 12:36:49;;;;;;;16.08;9.77;;;6.30;94.50;;;;;;4983706;28;20067;-60
2023/12/03 12:39:25;;;;;;;21.52;11.43;;;;;;;;;;4972047;28;20101;-57
2023/12/03 12:41:51;;;;;;;13.00;8.45;;;5.90;99.90;;;;;;5001091;28;20572;-60
2023/12/03 12:44:18;;;;;;;17.20;11.00;;;5.90;99.90;;;;;;5005101;28;20074;-57
2023/12/03 12:46:52;;;;;;;11.98;6.65;;;;;;;;;;5005580;28;20054;-55
2023/12/03 12:49:18;;;;;;;12.27;8.98;;;5.90;99.90;;;;;;5002925;28;20583;-55
2023/12/03 12:51:44;;;;;;;10.77;6.50;;;6.10;95.90;;;;;;4999978;28;20026;-54
2023/12/03 12:54:11;;;;;;;22.58;14.32;;;6.30;95.80;;;;;;4999595;28;20030;-53
2023/12/03 12:56:37;;;;;;;19.08;13.07;;;6.30;95.50;;;;;;5003487;28;20037;-54
2023/12/03 12:59:03;;;;;;;22.30;13.68;;;6.30;95.20;;;;;;5045327;28;20044;-55
2023/12/03 13:01:30;;;;;;;9.90;6.97;;;6.10;94.80;;;;;;5052455;28;20029;-54